Latest Weather Observations for Thredbo Top Station

IDN60901

Issued at 7:21 pm EST Friday 28 August 2015 (issued every 10 minutes, with the page automatically refreshed every 10 minutes)

About weather observations | Map of Canberra area stations | Latest observations for Canberra area | Other Formats
Station Details ID: 071032 Name: THREDBO AWS Lat: -36.49 Lon: 148.29 Height: 1957.0 m
Data from the previous 72 hours. | See also: Recent months at Thredbo Top Station
Date/Time
EST
Tmp

°C
App
Tmp
°C
Dew
Point
°C
Rel
Hum
%
Delta-T

°C
Wind Press
QNH
hPa
Press
MSL
hPa
Rain
since
9 am
mm
Dir
 
Spd
km/h
Gust
km/h
Spd
kts
Gust
kts
28/07:00pm -1.5 -6.2 -1.6 99 0.0 WSW 13 20 7 11 - - 4.8
28/06:30pm -1.4 -6.4 -1.5 99 0.0 WSW 15 20 8 11 - - 4.8
28/06:00pm -1.4 -6.4 -1.5 99 0.0 W 15 20 8 11 - - 4.8
28/05:30pm -1.5 -6.9 -1.6 99 0.0 WSW 17 26 9 14 - - 4.6
28/05:00pm -1.3 -7.3 -1.4 99 0.0 W 20 26 11 14 - - 4.6
28/04:30pm -0.8 -6.1 -0.9 99 0.0 W 17 24 9 13 - - 4.6
28/04:00pm -0.8 -5.8 -0.9 99 0.0 W 15 19 8 10 - - 4.6
28/03:30pm -0.6 -5.9 -0.7 99 0.0 W 17 22 9 12 - - 4.6
28/03:00pm -0.2 -5.5 -0.3 99 0.0 W 17 24 9 13 - - 4.6
28/02:30pm 0.0 -4.5 -0.1 99 0.0 W 13 19 7 10 - - 4.6
28/02:00pm 0.5 -3.5 0.4 99 0.0 WSW 11 19 6 10 - - 4.6
28/01:30pm 0.5 -3.5 0.4 99 0.0 SW 11 19 6 10 - - 4.4
28/01:00pm 0.3 -4.1 0.2 99 0.0 SW 13 19 7 10 - - 4.4
28/12:30pm 0.3 -3.0 0.2 99 0.0 SW 7 15 4 8 - - 4.4
28/12:00pm 0.0 -4.1 -0.1 99 0.0 SSW 11 17 6 9 - - 4.4
28/11:30am -0.3 -4.8 -0.4 99 0.0 SW 13 17 7 9 - - 4.4
28/11:00am -0.5 -4.7 -0.6 99 0.0 S 11 19 6 10 - - 4.4
28/10:30am -0.8 -6.1 -0.9 99 0.0 SSW 17 24 9 13 - - 0.0
28/10:00am -1.1 -6.9 -1.2 99 0.0 SSW 19 28 10 15 - - 0.0
28/09:30am -1.3 -5.6 -1.4 99 0.0 SSW 11 32 6 17 - - 0.0
28/09:00am -1.4 -4.9 -1.5 99 0.0 SSW 7 11 4 6 - - 8.8
28/08:30am -1.4 -4.9 -1.5 99 0.0 SSW 7 11 4 6 1020.0 1024.8 8.8
28/08:00am -1.3 -5.2 -1.4 99 0.0 SSW 9 13 5 7 1019.5 1024.2 8.8
28/07:30am -1.5 -5.4 -1.6 99 0.0 SSW 9 13 5 7 1019.1 1023.8 8.8
28/07:00am -1.6 -5.9 -1.7 99 0.0 SSW 11 19 6 10 1018.9 1023.6 8.8
28/06:30am -1.6 -8.0 -1.7 99 0.0 SSW 22 32 12 17 1018.6 1023.2 8.8
28/06:00am -1.6 -9.9 -1.7 99 0.0 SSW 32 43 17 23 1018.1 1022.8 8.8
28/05:30am -1.6 -10.8 -1.7 99 0.0 SSW 37 54 20 29 1017.6 1022.3 8.8
28/05:28am -1.6 -10.5 -1.7 99 0.0 SSW 35 54 19 29 1017.6 1022.3 8.8
28/05:00am -1.5 -11.1 -1.6 99 0.0 SSW 39 54 21 29 1017.2 1021.8 8.8
28/04:30am -1.4 -11.0 -1.5 99 0.0 SSW 39 52 21 28 1016.8 1021.5 8.8
28/04:00am -1.5 -9.8 -1.6 99 0.0 SW 32 46 17 25 1016.7 1021.3 8.8
28/03:30am -1.5 -9.8 -1.6 99 0.0 SW 32 43 17 23 1016.6 1021.2 8.8
28/03:00am -1.3 -9.6 -1.4 99 0.0 SW 32 43 17 23 1016.5 1021.1 8.8
28/02:30am -1.3 -7.7 -1.4 99 0.0 SW 22 32 12 17 1016.6 1021.2 8.8
28/02:00am -1.2 -8.3 -1.3 99 0.0 WSW 26 30 14 16 1016.8 1021.5 8.8
28/01:30am -1.2 -7.5 -1.3 99 0.0 WSW 22 32 12 17 1016.8 1021.5 8.8
28/01:00am -1.3 -8.0 -1.4 99 0.0 WSW 24 26 13 14 1017.0 1021.6 8.8
28/12:30am -1.6 -7.0 -1.7 99 0.0 SW 17 22 9 12 1017.2 1021.8 8.8
28/12:00am -1.3 -7.7 -1.4 99 0.0 WSW 22 26 12 14 1017.1 1021.7 8.8
 
Date/Time
EST
Tmp

°C
App
Tmp
°C
Dew
Point
°C
Rel
Hum
%
Delta-T

°C
Wind Press
QNH
hPa
Press
MSL
hPa
Rain
since
9 am
mm
Dir
 
Spd
km/h
Gust
km/h
Spd
kts
Gust
kts
27/11:30pm -1.1 -7.8 -1.2 99 0.0 WSW 24 30 13 16 1017.1 1021.7 8.8
27/11:00pm -1.2 -7.9 -1.3 99 0.0 WSW 24 32 13 17 1017.2 1021.8 8.8
27/10:30pm -1.1 -9.3 -1.2 99 0.0 W 32 39 17 21 - - 8.8
27/10:00pm -1.0 -7.7 -1.1 99 0.0 W 24 30 13 16 - - 8.8
27/09:30pm -1.4 -8.9 -1.5 99 0.0 NW 28 33 15 18 - - 8.8
27/09:00pm -1.2 -7.5 -1.3 99 0.0 WNW 22 30 12 16 - - 8.8
27/08:30pm -1.5 -8.3 -1.6 99 0.0 WNW 24 32 13 17 - - 8.8
27/08:00pm -1.4 -7.8 -1.5 99 0.0 NW 22 26 12 14 - - 8.8
27/07:30pm -0.8 -6.5 -0.9 99 0.0 WNW 19 24 10 13 - - 8.8
27/07:00pm -1.3 -8.0 -1.4 99 0.0 W 24 32 13 17 - - 8.8
27/06:30pm -0.9 -8.0 -1.0 99 0.0 W 26 35 14 19 - - 8.8
27/06:00pm -0.2 -5.5 -0.3 99 0.0 W 17 24 9 13 - - 8.8
27/05:30pm -0.2 -7.9 -0.3 99 0.0 W 30 39 16 21 - - 8.8
27/05:00pm -0.2 -7.5 -0.3 99 0.0 W 28 39 15 21 - - 8.8
27/04:30pm -0.2 -6.8 -0.3 99 0.0 WNW 24 33 13 18 - - 8.8
27/04:00pm 0.0 -6.2 -0.1 99 0.0 W 22 32 12 17 - - 8.8
27/03:30pm 0.1 -6.8 0.0 99 0.0 WNW 26 33 14 18 - - 8.8
27/03:00pm 0.3 -6.2 0.2 99 0.0 WNW 24 33 13 18 - - 8.2
27/02:30pm 0.4 -7.2 0.3 99 0.0 NW 30 39 16 21 - - 8.0
27/02:00pm 0.9 -5.1 0.8 99 0.0 NW 22 35 12 19 - - 7.4
27/01:30pm 0.9 -6.3 0.8 99 0.0 NW 28 39 15 21 - - 7.2
27/01:00pm 1.0 -4.5 0.9 99 0.0 NW 19 26 10 14 - - 7.2
27/12:30pm 0.8 -4.9 0.7 99 0.0 NNW 20 26 11 14 - - 7.2
27/12:00pm 1.1 -5.3 1.0 99 0.0 NW 24 33 13 18 - - 7.2
27/11:30am 0.9 -7.6 0.8 99 0.0 NNW 35 41 19 22 - - 7.0
27/11:00am 1.1 -6.8 1.0 99 0.0 NNW 32 37 17 20 - - 7.0
27/10:30am 1.0 -5.8 0.9 99 0.0 NNW 26 33 14 18 - - 5.4
27/10:00am 0.9 -4.2 0.8 99 0.0 NNE 17 24 9 13 - - 3.2
27/09:30am 1.0 -4.5 0.9 99 0.0 NNE 19 26 10 14 - - 1.4
27/09:00am 0.5 -4.7 0.4 99 0.0 NNE 17 26 9 14 - - 11.4
27/08:30am 0.3 -4.1 0.2 99 0.0 NNE 13 19 7 10 - - 10.8
27/08:00am 0.1 -4.4 0.0 99 0.0 NE 13 15 7 8 1019.2 1023.9 10.6
27/07:30am 0.1 -5.1 0.0 99 0.0 NNE 17 20 9 11 1019.1 1023.8 10.4
27/07:00am 0.2 -3.5 0.1 99 0.0 N 9 20 5 11 1018.9 1023.6 10.2
27/06:30am 0.4 -4.4 0.3 99 0.0 NNE 15 19 8 10 1018.8 1023.5 10.0
27/06:00am 0.7 -4.0 0.6 99 0.0 NE 15 19 8 10 1018.7 1023.4 9.2
27/05:30am 0.3 -4.1 0.2 99 0.0 NNE 13 19 7 10 1018.8 1023.5 9.0
27/05:00am 0.4 -3.6 0.3 99 0.0 NNE 11 17 6 9 1018.9 1023.6 8.6
27/04:30am 0.2 -3.5 0.1 99 0.0 NNE 9 13 5 7 1019.2 1023.9 8.4
27/04:00am 0.5 -3.1 0.4 99 0.0 NNE 9 13 5 7 1019.5 1024.2 8.4
27/03:30am 0.6 -3.0 0.5 99 0.0 NNE 9 13 5 7 1019.6 1024.3 8.4
27/03:00am 0.4 -4.8 0.3 99 0.0 NNE 17 22 9 12 1020.0 1024.8 8.4
27/02:30am 0.3 -4.9 0.2 99 0.0 N 17 19 9 10 1020.5 1025.2 8.4
27/02:00am 0.3 -5.3 0.2 99 0.0 NNE 19 26 10 14 1020.8 1025.6 8.4
27/01:30am 0.3 -5.3 0.2 99 0.0 NNE 19 24 10 13 1021.2 1026.0 8.4
27/01:00am 0.4 -4.4 0.3 99 0.0 N 15 20 8 11 1021.5 1026.3 8.4
27/12:30am 0.4 -4.8 0.3 99 0.0 N 17 22 9 12 1021.9 1026.7 8.4
27/12:00am 0.3 -5.3 0.2 99 0.0 N 19 26 10 14 - - 8.2
 
Date/Time
EST
Tmp

°C
App
Tmp
°C
Dew
Point
°C
Rel
Hum
%
Delta-T

°C
Wind Press
QNH
hPa
Press
MSL
hPa
Rain
since
9 am
mm
Dir
 
Spd
km/h
Gust
km/h
Spd
kts
Gust
kts
26/11:30pm 0.2 -5.4 0.1 99 0.0 N 19 24 10 13 - - 8.2
26/11:00pm 0.6 -5.1 0.5 99 0.0 NNE 20 26 11 14 - - 8.2
26/10:30pm 0.5 -5.0 0.4 99 0.0 NE 19 24 10 13 - - 8.2
26/10:00pm 0.8 -4.3 0.7 99 0.0 NE 17 22 9 12 - - 8.2
26/09:30pm 0.8 -4.3 0.7 99 0.0 NE 17 20 9 11 - - 8.2
26/09:00pm 0.7 -4.4 0.6 99 0.0 NE 17 22 9 12 - - 8.2
26/08:30pm 0.8 -3.5 0.7 99 0.0 NE 13 17 7 9 - - 8.0
26/08:00pm 0.9 -3.1 0.8 99 0.0 ENE 11 17 6 9 - - 7.8
26/07:30pm 0.9 -4.2 0.8 99 0.0 ENE 17 20 9 11 - - 7.6
26/07:00pm 0.8 -3.5 0.7 99 0.0 ENE 13 19 7 10 - - 7.4
26/06:30pm 0.8 -3.9 0.7 99 0.0 NE 15 17 8 9 - - 7.0
26/06:00pm 0.9 -3.4 0.8 99 0.0 ENE 13 20 7 11 - - 7.0
26/05:30pm 0.9 -3.1 0.8 99 0.0 ENE 11 15 6 8 - - 6.8
26/05:00pm 0.8 -3.2 0.7 99 0.0 ENE 11 17 6 9 - - 6.6
26/04:30pm 0.9 -3.4 0.8 99 0.0 ENE 13 19 7 10 - - 6.6
26/04:00pm 0.9 -3.4 0.8 99 0.0 ENE 13 22 7 12 - - 6.6
26/03:30pm 0.6 -3.8 0.5 99 0.0 NE 13 19 7 10 - - 6.6
26/03:00pm 0.6 -4.5 0.5 99 0.0 ENE 17 24 9 13 - - 6.6
26/02:30pm 0.7 -3.7 0.6 99 0.0 ENE 13 20 7 11 - - 6.4
26/02:00pm 0.5 -5.0 0.4 99 0.0 NE 19 24 10 13 - - 6.4
26/01:30pm 0.5 -4.7 0.4 99 0.0 ENE 17 20 9 11 - - 6.4
26/01:00pm 0.4 -3.6 0.3 99 0.0 E 11 20 6 11 - - 6.2
26/12:30pm 0.0 -4.8 -0.1 99 0.0 ENE 15 22 8 12 - - 6.2
26/12:00pm 0.0 -4.5 -0.1 99 0.0 ENE 13 22 7 12 - - 6.2
26/11:30am 0.0 -2.0 -0.1 99 0.0 CALM 0 0 0 0 - - 6.2
26/11:00am -0.2 -2.2 -0.3 99 0.0 CALM 0 0 0 0 - - 4.8
26/10:30am -0.4 -2.5 -0.5 99 0.0 CALM 0 0 0 0 - - 0.0
26/10:00am -0.6 -2.7 -0.7 99 0.0 CALM 0 0 0 0 1025.5 1030.5 0.0
26/09:30am -0.6 -2.7 -0.7 99 0.0 CALM 0 0 0 0 1025.6 1030.6 0.0
26/09:00am -1.0 -3.1 -1.1 99 0.0 CALM 0 0 0 0 1025.8 1030.7 0.0
26/08:30am -1.3 -3.5 -1.4 99 0.0 CALM 0 0 0 0 1025.8 1030.7 0.0
26/08:00am -1.5 -3.7 -1.6 99 0.0 CALM 0 0 0 0 1025.6 1030.6 0.0
26/07:30am -1.7 -3.9 -1.8 99 0.0 CALM 0 0 0 0 1025.4 1030.3 0.0
26/07:00am -2.0 -4.3 -2.1 99 -0.1 CALM 0 0 0 0 1025.2 1030.1 0.0
26/06:30am -2.1 -4.4 -2.2 99 -0.1 CALM 0 0 0 0 1024.8 1029.7 0.0
26/06:00am -2.1 -4.4 -2.2 99 -0.1 CALM 0 0 0 0 1024.5 1029.4 0.0
26/05:30am -2.1 -4.4 -2.2 99 -0.1 CALM 0 0 0 0 1024.5 1029.4 0.0
26/05:00am -2.0 -4.3 -2.1 99 -0.1 CALM 0 0 0 0 1024.4 1029.3 0.0
26/04:30am -2.1 -4.4 -2.2 99 -0.1 CALM 0 0 0 0 1024.3 1029.2 0.0
26/04:00am -2.0 -4.3 -2.1 99 -0.1 CALM 0 0 0 0 1023.8 1028.7 0.0
26/03:30am -2.2 -4.5 -2.3 99 -0.1 CALM 0 0 0 0 1023.5 1028.3 0.0
26/03:00am -2.2 -4.5 -2.3 99 -0.1 CALM 0 0 0 0 1023.6 1028.4 0.0
26/02:30am -2.1 -4.4 -2.2 99 -0.1 CALM 0 0 0 0 1024.0 1028.9 0.0
26/02:00am -2.1 -4.4 -2.2 99 -0.1 CALM 0 0 0 0 1024.2 1029.0 0.0
26/01:30am -2.2 -4.5 -2.3 99 -0.1 CALM 0 0 0 0 1024.3 1029.2 0.0
26/01:00am -2.1 -4.4 -2.2 99 -0.1 CALM 0 0 0 0 1024.4 1029.3 0.0
26/12:30am -2.1 -4.4 -2.2 99 -0.1 CALM 0 0 0 0 1024.3 1029.2 0.0
26/12:00am -2.2 -4.5 -2.3 99 -0.1 CALM 0 0 0 0 1024.4 1029.3 0.0
 
Date/Time
EST
Tmp

°C
App
Tmp
°C
Dew
Point
°C
Rel
Hum
%
Delta-T

°C
Wind Press
QNH
hPa
Press
MSL
hPa
Rain
since
9 am
mm
Dir
 
Spd
km/h
Gust
km/h
Spd
kts
Gust
kts
25/11:30pm -2.3 -4.6 -2.4 99 -0.1 CALM 0 0 0 0 1024.3 1029.2 0.0
25/11:00pm -1.8 -4.0 -1.9 99 -0.1 CALM 0 0 0 0 1024.3 1029.2 0.0
25/10:30pm -1.7 -3.9 -1.8 99 0.0 CALM 0 0 0 0 1024.3 1029.2 0.0
25/10:00pm -1.2 -3.4 -1.3 99 0.0 CALM 0 0 0 0 1024.0 1028.9 0.0
25/09:30pm -1.2 -3.7 -1.3 99 0.0 ESE 2 4 1 2 - - 0.0
25/09:00pm -1.2 -4.5 -1.3 99 0.0 ESE 6 6 3 3 - - 0.0
25/08:30pm -1.2 -4.7 -1.3 99 0.0 SE 7 17 4 9 - - 0.0
25/08:00pm -1.2 -7.2 -1.3 99 0.0 SE 20 32 11 17 - - 0.0
25/07:30pm -1.6 -8.0 -1.7 99 0.0 SE 22 39 12 21 - - 0.0

Latest Capital City Observations: Canberra | Sydney | Melbourne | Brisbane | Adelaide | Perth | Hobart | Darwin

Other Formats:

Comma delimited format used in spreadsheet applications
http://www.bom.gov.au/fwo/IDN60903/IDN60903.95909.axf

JavaScript Object Notation format (JSON) in row-major order
http://www.bom.gov.au/fwo/IDN60903/IDN60903.95909.json